createdAt,value
2018-10-19T00:01:32.108Z,59.77
2018-10-19T00:04:00.324Z,63.77
2018-10-19T00:06:28.528Z,67.57
2018-10-19T00:08:56.756Z,64.33
2018-10-19T00:11:24.969Z,72.20
2018-10-19T00:13:53.292Z,78.70
2018-10-19T00:16:21.800Z,65.70
2018-10-19T00:18:50.536Z,69.67
2018-10-19T00:21:18.747Z,64.20
2018-10-19T00:23:47.168Z,57.23
2018-10-19T00:26:15.389Z,70.63
2018-10-19T00:28:43.612Z,67.03
2018-10-19T00:31:11.920Z,73.63
2018-10-19T00:33:40.098Z,84.00
2018-10-19T00:36:08.383Z,80.87
2018-10-19T00:38:36.590Z,70.83
2018-10-19T00:41:05.066Z,67.10
2018-10-19T00:43:33.484Z,75.33
2018-10-19T00:46:01.866Z,66.83
2018-10-19T00:48:30.056Z,71.70
2018-10-19T00:50:58.295Z,64.30
2018-10-19T00:53:26.483Z,67.70
2018-10-19T00:55:54.716Z,64.60
2018-10-19T00:58:22.927Z,63.60
2018-10-19T01:00:51.149Z,71.50
2018-10-19T01:03:19.340Z,67.77
2018-10-19T01:05:47.572Z,64.83
2018-10-19T01:08:15.792Z,70.10
2018-10-19T01:10:44.003Z,61.67
2018-10-19T01:13:12.216Z,64.87
2018-10-19T01:15:40.420Z,60.53
2018-10-19T01:18:08.913Z,64.30
2018-10-19T01:20:37.166Z,66.53
2018-10-19T01:23:05.565Z,67.17
2018-10-19T01:25:33.767Z,70.00
2018-10-19T01:28:01.982Z,64.17
2018-10-19T01:30:30.220Z,65.50
2018-10-19T01:32:58.463Z,81.23
2018-10-19T01:35:26.715Z,78.67
2018-10-19T01:37:55.002Z,79.33
2018-10-19T01:40:23.244Z,76.43
2018-10-19T01:42:51.480Z,101.50
2018-10-19T01:45:19.840Z,118.00
2018-10-19T01:47:48.049Z,121.67
2018-10-19T01:50:16.268Z,118.00
2018-10-19T01:52:44.491Z,114.63
2018-10-19T01:55:12.711Z,98.53
2018-10-19T01:57:40.920Z,92.03
2018-10-19T02:00:09.165Z,86.73
2018-10-19T02:02:37.368Z,77.93
2018-10-19T02:05:05.633Z,77.50
2018-10-19T02:07:33.792Z,82.93
2018-10-19T02:10:01.996Z,78.10
2018-10-19T02:12:30.260Z,80.07
2018-10-19T02:14:58.525Z,75.93
2018-10-19T02:17:26.680Z,75.00
2018-10-19T02:19:54.887Z,71.87
2018-10-19T02:22:23.103Z,74.43
2018-10-19T02:24:51.296Z,68.00
2018-10-19T02:27:19.508Z,62.27
2018-10-19T02:29:47.839Z,73.97
2018-10-19T02:32:16.038Z,71.60
2018-10-19T02:34:44.627Z,66.90
2018-10-19T02:37:12.829Z,65.50
2018-10-19T02:39:41.040Z,68.20
2018-10-19T02:42:09.495Z,70.00
2018-10-19T02:44:37.703Z,68.20
2018-10-19T02:47:06.234Z,69.63
2018-10-19T02:49:34.397Z,62.50
2018-10-19T02:52:02.624Z,74.50
2018-10-19T02:54:30.843Z,69.03
2018-10-19T02:56:59.373Z,69.63
2018-10-19T02:59:27.528Z,65.50
2018-10-19T03:01:55.797Z,63.97
2018-10-19T03:04:23.988Z,63.90
2018-10-19T03:06:52.217Z,66.17
2018-10-19T03:09:20.431Z,78.70
2018-10-19T03:11:48.705Z,80.67
2018-10-19T03:14:17.017Z,76.63
2018-10-19T03:16:45.580Z,80.97
2018-10-19T03:19:14.048Z,84.20
2018-10-19T03:21:42.366Z,86.00
2018-10-19T03:24:10.562Z,78.10
2018-10-19T03:26:38.856Z,83.33
2018-10-19T03:29:07.134Z,75.77
2018-10-19T03:31:35.283Z,79.17
2018-10-19T03:34:03.703Z,85.73
2018-10-19T03:36:31.900Z,85.90
2018-10-19T03:39:00.149Z,80.73
2018-10-19T03:41:28.328Z,81.57
2018-10-19T03:43:56.532Z,83.63
2018-10-19T03:46:24.764Z,78.53
2018-10-19T03:48:52.977Z,87.27
2018-10-19T03:51:21.160Z,80.00
2018-10-19T03:53:49.671Z,83.87
2018-10-19T03:56:17.856Z,86.50
2018-10-19T03:58:46.048Z,77.10
2018-10-19T04:01:14.636Z,83.60
2018-10-19T04:03:42.838Z,86.97
2018-10-19T04:06:11.046Z,97.83
2018-10-19T04:08:39.336Z,111.07
2018-10-19T04:11:07.733Z,102.37
2018-10-19T04:13:35.889Z,93.53
2018-10-19T04:16:04.142Z,87.23
2018-10-19T04:18:32.340Z,93.63
2018-10-19T04:21:00.600Z,93.43
2018-10-19T04:23:28.751Z,94.67
2018-10-19T04:25:57.172Z,93.00
2018-10-19T04:28:25.409Z,101.43
2018-10-19T04:30:53.632Z,112.60
2018-10-19T04:33:21.921Z,104.43
2018-10-19T04:35:50.138Z,101.73
2018-10-19T04:38:18.370Z,99.47
2018-10-19T04:40:46.686Z,111.30
2018-10-19T04:43:14.896Z,91.53
2018-10-19T04:45:43.108Z,94.00
2018-10-19T04:48:11.315Z,91.80
2018-10-19T04:50:39.547Z,71.43
2018-10-19T04:53:07.874Z,95.27
2018-10-19T04:55:35.996Z,90.17
2018-10-19T04:58:04.207Z,99.97
2018-10-19T05:00:32.765Z,112.17
2018-10-19T05:03:01.015Z,123.33
2018-10-19T05:05:29.256Z,129.50
2018-10-19T05:07:57.493Z,147.40
2018-10-19T05:10:25.916Z,175.10
2018-10-19T05:12:54.219Z,204.53
2018-10-19T05:15:22.348Z,184.73
2018-10-19T05:17:50.892Z,240.60
2018-10-19T05:20:19.184Z,268.53
2018-10-19T05:22:47.396Z,217.60
2018-10-19T05:25:15.952Z,224.27
2018-10-19T05:27:44.157Z,205.03
2018-10-19T05:30:13.196Z,210.57
2018-10-19T05:32:42.201Z,169.50
2018-10-19T05:35:10.468Z,236.83
2018-10-19T05:37:39.479Z,179.03
2018-10-19T05:40:08.896Z,143.47
2018-10-19T05:42:37.316Z,130.07
2018-10-19T05:45:07.742Z,119.60
2018-10-19T05:47:35.954Z,182.40
2018-10-19T05:50:05.067Z,268.50
2018-10-19T05:52:33.268Z,159.33
2018-10-19T05:55:01.493Z,171.43
2018-10-19T05:57:29.721Z,126.80
2018-10-19T05:59:57.952Z,136.43
2018-10-19T06:02:26.316Z,130.60
2018-10-19T06:04:54.385Z,138.20
2018-10-19T06:07:22.786Z,146.73
2018-10-19T06:09:50.971Z,143.20
2018-10-19T06:12:19.188Z,144.67
2018-10-19T06:14:47.425Z,156.43
2018-10-19T06:17:15.652Z,143.73
2018-10-19T06:19:43.851Z,159.00
2018-10-19T06:22:12.053Z,176.53
2018-10-19T06:24:40.303Z,162.17
2018-10-19T06:27:08.561Z,140.53
2018-10-19T06:29:36.762Z,146.10
2018-10-19T06:32:05.457Z,147.30
2018-10-19T06:34:33.633Z,154.53
2018-10-19T06:37:01.834Z,140.30
2018-10-19T06:39:30.128Z,150.37
2018-10-19T06:41:58.333Z,136.93
2018-10-19T06:44:26.604Z,150.43
2018-10-19T06:46:54.809Z,137.13
2018-10-19T06:49:23.047Z,147.57
2018-10-19T06:51:51.272Z,134.50
2018-10-19T06:54:19.595Z,134.53
2018-10-19T06:56:47.832Z,139.77
2018-10-19T06:59:16.065Z,134.30
2018-10-19T07:01:44.245Z,146.47
2018-10-19T07:04:12.464Z,133.80
2018-10-19T07:06:40.694Z,145.23
2018-10-19T07:09:09.138Z,132.27
2018-10-19T07:11:37.370Z,139.53
2018-10-19T07:14:05.655Z,191.27
2018-10-19T07:16:33.864Z,135.73
2018-10-19T07:19:02.116Z,121.47
2018-10-19T07:21:30.333Z,124.77
2018-10-19T07:23:58.509Z,105.53
2018-10-19T07:26:26.749Z,122.00
2018-10-19T07:28:55.205Z,107.87
2018-10-19T07:31:23.372Z,104.70
2018-10-19T07:33:52.156Z,84.83
2018-10-19T07:36:20.438Z,86.90
2018-10-19T07:38:48.612Z,80.40
2018-10-19T07:41:16.912Z,71.80
2018-10-19T07:43:45.040Z,75.83
2018-10-19T07:46:13.264Z,84.70
2018-10-19T07:48:42.368Z,83.53
2018-10-19T07:51:10.572Z,76.00
2018-10-19T07:53:38.798Z,96.40
2018-10-19T07:56:07.449Z,82.77
2018-10-19T07:58:35.564Z,76.97
2018-10-19T08:01:03.837Z,65.13
2018-10-19T08:03:32.007Z,69.77
2018-10-19T08:06:00.921Z,71.57
2018-10-19T08:08:29.147Z,71.80
2018-10-19T08:10:57.371Z,63.47
2018-10-19T08:13:25.571Z,68.80
2018-10-19T08:15:53.772Z,75.97
2018-10-19T08:18:21.987Z,74.33
2018-10-19T08:20:50.175Z,69.13
2018-10-19T08:23:18.397Z,66.23
2018-10-19T08:25:46.619Z,62.57
2018-10-19T08:28:14.835Z,64.33
2018-10-19T08:30:43.076Z,64.17
2018-10-19T08:33:11.287Z,66.17
2018-10-19T08:35:39.506Z,63.97
2018-10-19T08:38:07.712Z,60.30
2018-10-19T08:40:35.939Z,63.57
2018-10-19T08:43:04.169Z,64.73
2018-10-19T08:45:32.470Z,65.17
2018-10-19T08:48:00.645Z,61.20
2018-10-19T08:50:28.879Z,66.13
2018-10-19T08:52:57.101Z,62.80
2018-10-19T08:55:25.322Z,66.80
2018-10-19T08:57:53.554Z,60.53
2018-10-19T09:00:21.720Z,67.87
2018-10-19T09:02:49.928Z,60.93
2018-10-19T09:05:18.166Z,66.00
2018-10-19T09:07:46.372Z,69.20
2018-10-19T09:10:14.580Z,62.53
2018-10-19T09:12:43.173Z,56.27
2018-10-19T09:15:11.423Z,61.40
2018-10-19T09:17:39.531Z,67.83
2018-10-19T09:20:07.759Z,60.83
2018-10-19T09:22:35.996Z,69.37
2018-10-19T09:25:04.312Z,67.33
2018-10-19T09:27:32.511Z,68.40
2018-10-19T09:30:00.729Z,66.80
2018-10-19T09:32:29.808Z,70.20
2018-10-19T09:34:58.042Z,70.13
2018-10-19T09:37:26.239Z,70.23
2018-10-19T09:39:54.468Z,71.37
2018-10-19T09:42:22.696Z,75.40
2018-10-19T09:44:50.884Z,74.70
2018-10-19T09:47:19.114Z,72.80
2018-10-19T09:49:47.304Z,72.60
2018-10-19T09:52:15.547Z,74.97
2018-10-19T09:54:43.763Z,77.87
2018-10-19T09:57:12.075Z,76.17
2018-10-19T09:59:40.274Z,77.43
2018-10-19T10:02:08.566Z,77.50
2018-10-19T10:04:36.756Z,78.13
2018-10-19T10:07:05.025Z,77.93
2018-10-19T10:09:33.184Z,77.77
2018-10-19T10:12:01.384Z,75.00
2018-10-19T10:14:29.638Z,77.67
2018-10-19T10:16:57.838Z,72.07
2018-10-19T10:19:26.061Z,77.97
2018-10-19T10:21:54.363Z,76.60
2018-10-19T10:24:22.530Z,77.70
2018-10-19T10:26:50.734Z,81.03
2018-10-19T10:29:19.270Z,73.67
2018-10-19T10:31:47.480Z,71.07
2018-10-19T10:34:15.777Z,80.47
2018-10-19T10:36:43.932Z,74.50
2018-10-19T10:39:13.465Z,78.47
2018-10-19T10:41:41.473Z,72.30
2018-10-19T10:44:09.767Z,73.63
2018-10-19T10:46:38.041Z,75.33
2018-10-19T10:49:06.720Z,73.60
2018-10-19T10:51:34.856Z,75.00
2018-10-19T10:54:03.071Z,76.70
2018-10-19T10:56:31.305Z,78.23
2018-10-19T10:58:59.566Z,74.10
2018-10-19T11:01:28.335Z,74.30
2018-10-19T11:03:56.566Z,70.73
2018-10-19T11:06:24.772Z,74.93
2018-10-19T11:08:52.997Z,76.23
2018-10-19T11:11:21.215Z,72.00
2018-10-19T11:13:49.424Z,71.97
2018-10-19T11:16:17.640Z,70.00
2018-10-19T11:18:46.164Z,69.33
2018-10-19T11:21:14.392Z,69.87
2018-10-19T11:23:42.636Z,69.10
2018-10-19T11:26:11.088Z,69.77
2018-10-19T11:28:39.304Z,71.70
2018-10-19T11:31:07.580Z,69.30
2018-10-19T11:33:35.803Z,67.77
2018-10-19T11:36:04.029Z,73.73
2018-10-19T11:38:32.256Z,73.10
2018-10-19T11:41:00.484Z,68.53
2018-10-19T11:43:28.764Z,66.13
2018-10-19T11:45:57.019Z,74.67
2018-10-19T11:48:25.175Z,74.40
2018-10-19T11:50:53.432Z,64.93
2018-10-19T11:53:21.682Z,72.67
2018-10-19T11:55:49.882Z,67.80
2018-10-19T11:58:18.150Z,68.53
2018-10-19T12:00:46.564Z,70.27
2018-10-19T12:03:14.772Z,68.63
2018-10-19T12:05:43.004Z,63.63
2018-10-19T12:08:11.228Z,61.90
2018-10-19T12:10:39.531Z,63.70
2018-10-19T12:13:07.759Z,67.57
2018-10-19T12:15:35.916Z,69.43
2018-10-19T12:18:04.159Z,60.97
2018-10-19T12:20:32.383Z,61.40
2018-10-19T12:23:00.615Z,58.03
2018-10-19T12:25:28.859Z,55.93
2018-10-19T12:27:57.109Z,60.50
2018-10-19T12:30:25.341Z,61.37
2018-10-19T12:32:53.546Z,59.20
2018-10-19T12:35:21.883Z,59.83
2018-10-19T12:37:50.093Z,61.53
2018-10-19T12:40:18.554Z,56.50
2018-10-19T12:42:46.761Z,59.63
2018-10-19T12:46:25.866Z,64.17
2018-10-19T12:48:54.525Z,54.87
2018-10-19T12:51:22.697Z,56.73
2018-10-19T12:53:50.996Z,56.10
2018-10-19T12:56:19.936Z,55.93
2018-10-19T12:58:49.047Z,53.73
2018-10-19T13:01:17.300Z,54.70
2018-10-19T13:03:45.519Z,54.37
2018-10-19T13:06:13.761Z,54.63
2018-10-19T13:08:41.969Z,51.73
2018-10-19T13:11:10.224Z,56.03
2018-10-19T13:13:38.429Z,56.00
2018-10-19T13:16:06.725Z,55.47
2018-10-19T13:18:34.921Z,56.03
2018-10-19T13:21:03.251Z,57.53
2018-10-19T13:23:32.244Z,56.57
2018-10-19T13:26:00.733Z,54.70
2018-10-19T13:28:29.140Z,51.50
2018-10-19T13:30:57.356Z,51.37
2018-10-19T13:33:25.900Z,53.03
2018-10-19T13:35:54.629Z,64.97
2018-10-19T13:38:23.408Z,58.00
2018-10-19T13:40:52.420Z,61.20
2018-10-19T13:43:20.919Z,58.93
2018-10-19T13:45:49.242Z,57.83
2018-10-19T13:48:17.696Z,55.50
2018-10-19T13:50:45.960Z,58.30
2018-10-19T13:53:14.173Z,60.73
2018-10-19T13:55:42.407Z,56.77
2018-10-19T13:58:10.639Z,58.33
2018-10-19T14:00:38.866Z,55.97
2018-10-19T14:03:07.150Z,56.30
2018-10-19T14:05:35.481Z,58.03
2018-10-19T14:08:03.590Z,55.10
2018-10-19T14:10:31.831Z,57.63
2018-10-19T14:13:00.108Z,58.00
2018-10-19T14:15:28.314Z,56.13
2018-10-19T14:17:56.543Z,52.50
2018-10-19T14:20:24.809Z,57.13
2018-10-19T14:22:53.092Z,61.67
2018-10-19T14:25:21.405Z,51.73
2018-10-19T14:27:49.684Z,55.00
2018-10-19T14:30:18.740Z,55.67
2018-10-19T14:32:46.972Z,54.07
2018-10-19T14:35:15.486Z,56.30
2018-10-19T14:37:44.696Z,56.03
2018-10-19T14:40:14.448Z,56.70
2018-10-19T14:42:43.166Z,55.83
2018-10-19T14:45:12.669Z,51.40
2018-10-19T14:47:41.542Z,50.80
2018-10-19T14:50:11.568Z,53.03
2018-10-19T14:52:39.786Z,52.40
2018-10-19T14:55:10.297Z,57.60
2018-10-19T14:57:38.506Z,53.67
2018-10-19T15:00:15.526Z,55.30
2018-10-19T15:02:43.736Z,52.70
2018-10-19T15:05:13.390Z,50.47
2018-10-19T15:07:41.560Z,51.70
2018-10-19T15:10:13.473Z,53.67
2018-10-19T15:12:41.876Z,49.47
2018-10-19T15:15:11.719Z,51.57
2018-10-19T15:17:39.881Z,54.90
2018-10-19T15:20:08.212Z,52.53
2018-10-19T15:22:36.520Z,53.97
2018-10-19T15:25:05.296Z,54.53
2018-10-19T15:27:33.623Z,53.50
2018-10-19T15:30:01.929Z,50.63
2018-10-19T15:32:30.065Z,51.10
2018-10-19T15:34:58.268Z,52.90
2018-10-19T15:37:27.442Z,51.13
2018-10-19T15:39:55.641Z,61.40
2018-10-19T15:42:23.856Z,54.43
2018-10-19T15:44:52.081Z,54.03
2018-10-19T15:47:24.932Z,52.83
2018-10-19T15:49:54.108Z,55.33
2018-10-19T15:52:22.305Z,53.77
2018-10-19T15:54:50.883Z,55.93
2018-10-19T15:57:19.145Z,55.83
2018-10-19T15:59:47.288Z,52.53
2018-10-19T16:02:15.717Z,58.53
2018-10-19T16:04:44.595Z,53.53
2018-10-19T16:07:12.839Z,54.30
2018-10-19T16:09:41.073Z,59.03
2018-10-19T16:12:09.388Z,54.00
2018-10-19T16:14:37.581Z,57.00
2018-10-19T16:17:05.919Z,55.87
2018-10-19T16:19:34.141Z,58.03
2018-10-19T16:22:02.680Z,57.37
2018-10-19T16:24:30.916Z,54.53
2018-10-19T16:26:59.214Z,63.33
2018-10-19T16:29:27.485Z,57.57
2018-10-19T16:31:55.669Z,57.63
2018-10-19T16:34:23.892Z,58.87
2018-10-19T16:36:52.258Z,58.90
2018-10-19T16:39:20.461Z,58.03
2018-10-19T16:41:48.699Z,62.80
2018-10-19T16:44:16.945Z,56.57
2018-10-19T16:46:45.142Z,64.63
2018-10-19T16:49:13.345Z,66.90
2018-10-19T16:51:41.606Z,65.23
2018-10-19T16:54:09.916Z,69.10
2018-10-19T16:56:38.031Z,61.17
2018-10-19T16:59:06.250Z,65.47
2018-10-19T17:01:34.477Z,63.33
2018-10-19T17:04:02.758Z,68.17
2018-10-19T17:06:30.988Z,68.40
2018-10-19T17:08:59.501Z,69.17
2018-10-19T17:11:27.716Z,70.47
2018-10-19T17:13:55.938Z,72.90
2018-10-19T17:16:24.194Z,63.40
2018-10-19T17:18:52.564Z,70.87
2018-10-19T17:21:20.877Z,69.17
2018-10-19T17:23:49.115Z,71.77
2018-10-19T17:26:17.332Z,71.03
2018-10-19T17:28:45.552Z,73.30
2018-10-19T17:31:13.864Z,70.80
2018-10-19T17:33:42.173Z,81.47
2018-10-19T17:36:10.265Z,81.63
2018-10-19T17:38:38.440Z,77.33
2018-10-19T17:41:06.697Z,73.87
2018-10-19T17:43:34.900Z,74.20
2018-10-19T17:46:03.116Z,80.33
2018-10-19T17:48:31.326Z,76.30
2018-10-19T17:50:59.621Z,81.83
2018-10-19T17:53:27.804Z,77.00
2018-10-19T17:55:56.048Z,76.80
2018-10-19T17:58:24.303Z,82.73
2018-10-19T18:00:52.476Z,77.00
2018-10-19T18:03:20.689Z,76.90
2018-10-19T18:05:48.956Z,85.50
2018-10-19T18:08:17.160Z,81.73
2018-10-19T18:10:45.422Z,77.20
2018-10-19T18:13:13.880Z,79.33
2018-10-19T18:15:42.139Z,83.83
2018-10-19T18:18:10.332Z,82.90
2018-10-19T18:20:38.560Z,86.77
2018-10-19T18:23:06.926Z,85.93
2018-10-19T18:25:35.011Z,93.17
2018-10-19T18:28:03.251Z,90.00
2018-10-19T18:30:31.575Z,89.00
2018-10-19T18:32:59.872Z,83.13
2018-10-19T18:35:28.149Z,87.13
2018-10-19T18:37:56.417Z,100.70
2018-10-19T18:40:24.623Z,87.53
2018-10-19T18:42:52.876Z,83.70
2018-10-19T18:45:21.108Z,92.97
2018-10-19T18:47:49.509Z,91.27
2018-10-19T18:50:17.807Z,97.00
2018-10-19T18:52:45.962Z,87.83
2018-10-19T18:55:14.329Z,95.70
2018-10-19T18:57:42.901Z,97.47
2018-10-19T19:00:11.715Z,103.97
2018-10-19T19:02:40.092Z,97.67
2018-10-19T19:05:08.362Z,93.57
2018-10-19T19:07:36.575Z,98.40
2018-10-19T19:10:19.395Z,92.63
2018-10-19T19:12:47.643Z,97.60
2018-10-19T19:15:15.844Z,96.63
2018-10-19T19:17:44.396Z,102.37
2018-10-19T19:20:18.073Z,93.70
2018-10-19T19:22:46.296Z,93.90
2018-10-19T19:26:19.324Z,94.43
2018-10-19T19:28:47.555Z,96.57
2018-10-19T19:31:16.092Z,105.30
2018-10-19T19:33:49.713Z,102.17
2018-10-19T19:36:18.200Z,104.07
2018-10-19T19:38:46.440Z,103.07
2018-10-19T19:41:20.188Z,100.80
2018-10-19T19:43:48.503Z,101.77
2018-10-19T19:46:16.720Z,99.47
2018-10-19T19:48:50.336Z,100.83
2018-10-19T19:51:18.629Z,96.90
2018-10-19T19:53:46.823Z,104.47
2018-10-19T19:56:15.199Z,110.27
2018-10-19T19:58:43.340Z,110.67
2018-10-19T20:01:11.576Z,112.97
2018-10-19T20:03:39.804Z,111.37
2018-10-19T20:06:08.376Z,105.00
2018-10-19T20:08:36.657Z,103.20
2018-10-19T20:11:05.286Z,103.60
2018-10-19T20:13:33.498Z,101.73
2018-10-19T20:16:01.761Z,119.00
2018-10-19T20:18:30.388Z,119.23
2018-10-19T20:20:58.588Z,121.43
2018-10-19T20:23:26.817Z,124.63
2018-10-19T20:25:55.348Z,109.43
2018-10-19T20:28:23.635Z,115.67
2018-10-19T20:30:51.937Z,107.80
2018-10-19T20:33:20.189Z,104.77
2018-10-19T20:35:48.580Z,107.57
2018-10-19T20:38:16.877Z,99.27
2018-10-19T20:40:45.074Z,106.57
2018-10-19T20:43:13.268Z,102.63
2018-10-19T20:45:41.760Z,101.30
2018-10-19T20:48:10.008Z,108.60
2018-10-19T20:50:38.212Z,110.83
2018-10-19T20:53:06.602Z,101.03
2018-10-19T20:55:34.813Z,93.23
2018-10-19T20:58:02.977Z,94.60
2018-10-19T21:00:31.209Z,101.77
2018-10-19T21:02:59.422Z,105.63
2018-10-19T21:05:27.664Z,110.23
2018-10-19T21:07:56.124Z,118.73
2018-10-19T21:10:24.364Z,104.03
2018-10-19T21:12:52.628Z,100.97
2018-10-19T21:15:20.843Z,102.90
2018-10-19T21:17:49.084Z,116.03
2018-10-19T21:20:17.312Z,118.33
2018-10-19T21:22:45.556Z,106.53
2018-10-19T21:25:14.212Z,108.47
2018-10-19T21:27:42.468Z,99.93
2018-10-19T21:30:12.131Z,97.57
2018-10-19T21:32:40.355Z,98.83
2018-10-19T21:35:08.632Z,100.43
2018-10-19T21:37:36.845Z,100.93
2018-10-19T21:40:05.284Z,104.80
2018-10-19T21:42:33.572Z,104.63
2018-10-19T21:45:01.796Z,113.80
2018-10-19T21:47:30.036Z,115.00
2018-10-19T21:49:58.368Z,111.07
2018-10-19T21:52:26.528Z,108.87
2018-10-19T21:54:54.748Z,125.03
2018-10-19T21:57:22.956Z,117.03
2018-10-19T21:59:51.160Z,100.87
2018-10-19T22:02:19.404Z,108.17
2018-10-19T22:04:47.627Z,108.33
2018-10-19T22:07:15.869Z,110.00
2018-10-19T22:09:44.074Z,103.43
2018-10-19T22:12:12.358Z,108.00
2018-10-19T22:14:40.565Z,128.83
2018-10-19T22:17:08.840Z,134.47
2018-10-19T22:19:37.011Z,131.50
2018-10-19T22:22:05.344Z,144.60
2018-10-19T22:24:33.555Z,138.47
2018-10-19T22:27:01.797Z,130.77
2018-10-19T22:29:30.088Z,117.13
2018-10-19T22:31:58.306Z,146.10
2018-10-19T22:34:26.544Z,119.73
2018-10-19T22:36:54.807Z,110.30
2018-10-19T22:39:22.978Z,107.20
2018-10-19T22:41:51.201Z,119.60
2018-10-19T22:44:19.417Z,115.37
2018-10-19T22:46:47.619Z,115.63
2018-10-19T22:49:15.897Z,116.37
2018-10-19T22:51:44.055Z,110.93
2018-10-19T22:54:12.255Z,109.40
2018-10-19T22:56:40.560Z,119.70
2018-10-19T22:59:08.806Z,119.70
2018-10-19T23:01:36.933Z,119.23
2018-10-19T23:04:05.698Z,116.37
2018-10-19T23:06:33.900Z,116.80
2018-10-19T23:09:02.133Z,118.40
2018-10-19T23:11:30.348Z,119.63
2018-10-19T23:13:58.581Z,125.30
2018-10-19T23:16:26.812Z,120.33
2018-10-19T23:18:55.039Z,110.37
2018-10-19T23:21:23.553Z,105.27
2018-10-19T23:23:51.735Z,111.77
2018-10-19T23:26:19.939Z,104.40
2018-10-19T23:28:48.159Z,105.00
2018-10-19T23:31:16.470Z,107.23
2018-10-19T23:33:44.598Z,123.30
2018-10-19T23:36:12.808Z,120.07
2018-10-19T23:38:41.010Z,111.40
2018-10-19T23:41:09.278Z,102.33
2018-10-19T23:43:37.468Z,115.33
2018-10-19T23:46:05.840Z,122.17
2018-10-19T23:48:34.093Z,104.63
2018-10-19T23:51:02.387Z,113.43
2018-10-19T23:53:30.592Z,108.20
2018-10-19T23:55:58.822Z,117.03
2018-10-19T23:58:27.043Z,117.23
